sensor_id;sensor_type;location;lat;lon;timestamp;P1;durP1;ratioP1;P2;durP2;ratioP2
19521;SDS011;9905;52.126;5.596;2022-12-18T00:02:00;44.80;;;22.40;;
19521;SDS011;9905;52.126;5.596;2022-12-18T00:04:27;33.93;;;20.60;;
19521;SDS011;9905;52.126;5.596;2022-12-18T00:06:56;42.97;;;21.00;;
19521;SDS011;9905;52.126;5.596;2022-12-18T00:09:23;34.50;;;22.17;;
19521;SDS011;9905;52.126;5.596;2022-12-18T00:11:50;32.07;;;20.00;;
19521;SDS011;9905;52.126;5.596;2022-12-18T00:14:16;27.47;;;18.80;;
19521;SDS011;9905;52.126;5.596;2022-12-18T00:16:44;28.10;;;20.13;;
19521;SDS011;9905;52.126;5.596;2022-12-18T00:19:11;44.87;;;22.87;;
19521;SDS011;9905;52.126;5.596;2022-12-18T00:21:38;37.37;;;22.57;;
19521;SDS011;9905;52.126;5.596;2022-12-18T00:24:06;24.30;;;20.77;;
19521;SDS011;9905;52.126;5.596;2022-12-18T00:26:34;45.27;;;23.47;;
19521;SDS011;9905;52.126;5.596;2022-12-18T00:29:03;35.60;;;21.03;;
19521;SDS011;9905;52.126;5.596;2022-12-18T00:31:31;36.43;;;21.73;;
19521;SDS011;9905;52.126;5.596;2022-12-18T00:33:58;39.03;;;22.50;;
19521;SDS011;9905;52.126;5.596;2022-12-18T00:36:25;29.63;;;20.13;;
19521;SDS011;9905;52.126;5.596;2022-12-18T00:38:54;34.37;;;22.10;;
19521;SDS011;9905;52.126;5.596;2022-12-18T00:41:23;40.40;;;23.83;;
19521;SDS011;9905;52.126;5.596;2022-12-18T00:44:09;34.00;;;22.30;;
19521;SDS011;9905;52.126;5.596;2022-12-18T00:46:37;27.97;;;20.17;;
19521;SDS011;9905;52.126;5.596;2022-12-18T00:49:04;37.50;;;21.43;;
19521;SDS011;9905;52.126;5.596;2022-12-18T00:51:31;32.50;;;21.80;;
19521;SDS011;9905;52.126;5.596;2022-12-18T00:53:58;32.67;;;22.57;;
19521;SDS011;9905;52.126;5.596;2022-12-18T00:56:26;47.00;;;24.63;;
19521;SDS011;9905;52.126;5.596;2022-12-18T00:58:53;37.17;;;22.57;;
19521;SDS011;9905;52.126;5.596;2022-12-18T01:01:20;32.27;;;18.37;;
19521;SDS011;9905;52.126;5.596;2022-12-18T01:03:47;30.57;;;20.27;;
19521;SDS011;9905;52.126;5.596;2022-12-18T01:06:14;31.53;;;20.97;;
19521;SDS011;9905;52.126;5.596;2022-12-18T01:08:42;34.10;;;20.73;;
19521;SDS011;9905;52.126;5.596;2022-12-18T01:11:10;37.27;;;21.80;;
19521;SDS011;9905;52.126;5.596;2022-12-18T01:13:39;34.23;;;19.40;;
19521;SDS011;9905;52.126;5.596;2022-12-18T01:16:06;30.60;;;20.60;;
19521;SDS011;9905;52.126;5.596;2022-12-18T01:18:33;30.97;;;20.03;;
19521;SDS011;9905;52.126;5.596;2022-12-18T01:21:00;30.23;;;21.40;;
19521;SDS011;9905;52.126;5.596;2022-12-18T01:23:31;37.70;;;21.23;;
19521;SDS011;9905;52.126;5.596;2022-12-18T01:26:03;28.63;;;19.23;;
19521;SDS011;9905;52.126;5.596;2022-12-18T01:28:30;29.47;;;18.03;;
19521;SDS011;9905;52.126;5.596;2022-12-18T01:30:58;25.83;;;20.40;;
19521;SDS011;9905;52.126;5.596;2022-12-18T01:33:36;28.03;;;17.70;;
19521;SDS011;9905;52.126;5.596;2022-12-18T01:36:03;30.63;;;19.13;;
19521;SDS011;9905;52.126;5.596;2022-12-18T01:38:30;29.87;;;18.67;;
19521;SDS011;9905;52.126;5.596;2022-12-18T01:40:57;28.10;;;19.47;;
19521;SDS011;9905;52.126;5.596;2022-12-18T01:46:14;29.80;;;20.07;;
19521;SDS011;9905;52.126;5.596;2022-12-18T01:48:41;26.70;;;19.83;;
19521;SDS011;9905;52.126;5.596;2022-12-18T01:51:10;34.80;;;18.50;;
19521;SDS011;9905;52.126;5.596;2022-12-18T01:53:38;28.53;;;17.73;;
19521;SDS011;9905;52.126;5.596;2022-12-18T01:56:07;28.03;;;17.63;;
19521;SDS011;9905;52.126;5.596;2022-12-18T01:58:39;24.77;;;17.50;;
19521;SDS011;9905;52.126;5.596;2022-12-18T02:01:12;29.90;;;18.27;;
19521;SDS011;9905;52.126;5.596;2022-12-18T02:03:42;28.40;;;18.77;;
19521;SDS011;9905;52.126;5.596;2022-12-18T02:06:11;23.37;;;17.07;;
19521;SDS011;9905;52.126;5.596;2022-12-18T02:08:44;27.27;;;16.63;;
19521;SDS011;9905;52.126;5.596;2022-12-18T02:11:22;31.20;;;17.33;;
19521;SDS011;9905;52.126;5.596;2022-12-18T02:13:58;26.40;;;18.23;;
19521;SDS011;9905;52.126;5.596;2022-12-18T02:16:36;26.30;;;16.13;;
19521;SDS011;9905;52.126;5.596;2022-12-18T02:19:15;18.33;;;16.50;;
19521;SDS011;9905;52.126;5.596;2022-12-18T02:21:54;29.50;;;17.80;;
19521;SDS011;9905;52.126;5.596;2022-12-18T02:24:29;22.67;;;16.47;;
19521;SDS011;9905;52.126;5.596;2022-12-18T02:27:03;20.03;;;17.87;;
19521;SDS011;9905;52.126;5.596;2022-12-18T02:29:33;21.67;;;15.07;;
19521;SDS011;9905;52.126;5.596;2022-12-18T02:32:05;23.30;;;17.43;;
19521;SDS011;9905;52.126;5.596;2022-12-18T02:34:37;20.87;;;16.87;;
19521;SDS011;9905;52.126;5.596;2022-12-18T02:37:05;22.27;;;14.37;;
19521;SDS011;9905;52.126;5.596;2022-12-18T02:39:37;17.47;;;14.70;;
19521;SDS011;9905;52.126;5.596;2022-12-18T02:42:07;18.87;;;16.17;;
19521;SDS011;9905;52.126;5.596;2022-12-18T02:44:34;28.37;;;17.27;;
19521;SDS011;9905;52.126;5.596;2022-12-18T02:47:01;25.50;;;17.60;;
19521;SDS011;9905;52.126;5.596;2022-12-18T02:49:31;24.13;;;15.50;;
19521;SDS011;9905;52.126;5.596;2022-12-18T02:52:05;19.10;;;15.37;;
19521;SDS011;9905;52.126;5.596;2022-12-18T02:54:39;16.80;;;14.97;;
19521;SDS011;9905;52.126;5.596;2022-12-18T02:57:16;23.57;;;17.03;;
19521;SDS011;9905;52.126;5.596;2022-12-18T02:59:50;24.17;;;16.93;;
19521;SDS011;9905;52.126;5.596;2022-12-18T03:02:23;24.10;;;14.10;;
19521;SDS011;9905;52.126;5.596;2022-12-18T03:04:57;20.17;;;14.10;;
19521;SDS011;9905;52.126;5.596;2022-12-18T03:07:33;18.37;;;15.33;;
19521;SDS011;9905;52.126;5.596;2022-12-18T03:10:03;29.27;;;16.20;;
19521;SDS011;9905;52.126;5.596;2022-12-18T03:12:35;22.17;;;15.37;;
19521;SDS011;9905;52.126;5.596;2022-12-18T03:15:08;23.73;;;16.53;;
19521;SDS011;9905;52.126;5.596;2022-12-18T03:17:38;23.23;;;15.73;;
19521;SDS011;9905;52.126;5.596;2022-12-18T03:20:10;21.73;;;16.00;;
19521;SDS011;9905;52.126;5.596;2022-12-18T03:22:40;19.50;;;14.63;;
19521;SDS011;9905;52.126;5.596;2022-12-18T03:25:11;23.33;;;16.30;;
19521;SDS011;9905;52.126;5.596;2022-12-18T03:27:42;17.77;;;13.60;;
19521;SDS011;9905;52.126;5.596;2022-12-18T03:30:13;19.97;;;15.37;;
19521;SDS011;9905;52.126;5.596;2022-12-18T03:32:42;20.93;;;16.87;;
19521;SDS011;9905;52.126;5.596;2022-12-18T03:35:15;16.50;;;14.43;;
19521;SDS011;9905;52.126;5.596;2022-12-18T03:37:44;15.13;;;12.80;;
19521;SDS011;9905;52.126;5.596;2022-12-18T03:40:11;20.33;;;14.73;;
19521;SDS011;9905;52.126;5.596;2022-12-18T03:42:39;16.30;;;14.33;;
19521;SDS011;9905;52.126;5.596;2022-12-18T03:45:17;16.13;;;14.37;;
19521;SDS011;9905;52.126;5.596;2022-12-18T03:47:51;16.80;;;13.33;;
19521;SDS011;9905;52.126;5.596;2022-12-18T03:50:25;15.73;;;12.63;;
19521;SDS011;9905;52.126;5.596;2022-12-18T03:52:59;16.90;;;13.73;;
19521;SDS011;9905;52.126;5.596;2022-12-18T03:55:31;17.57;;;13.83;;
19521;SDS011;9905;52.126;5.596;2022-12-18T03:58:01;22.20;;;14.47;;
19521;SDS011;9905;52.126;5.596;2022-12-18T04:00:31;20.17;;;12.93;;
19521;SDS011;9905;52.126;5.596;2022-12-18T04:02:59;15.57;;;13.80;;
19521;SDS011;9905;52.126;5.596;2022-12-18T04:05:27;13.60;;;12.10;;
19521;SDS011;9905;52.126;5.596;2022-12-18T04:07:56;17.57;;;12.50;;
19521;SDS011;9905;52.126;5.596;2022-12-18T04:10:23;15.80;;;13.70;;
19521;SDS011;9905;52.126;5.596;2022-12-18T04:12:49;17.23;;;15.47;;
19521;SDS011;9905;52.126;5.596;2022-12-18T04:15:18;18.60;;;14.77;;
19521;SDS011;9905;52.126;5.596;2022-12-18T04:17:46;15.10;;;13.57;;
19521;SDS011;9905;52.126;5.596;2022-12-18T04:20:14;16.03;;;13.47;;
19521;SDS011;9905;52.126;5.596;2022-12-18T04:22:41;16.73;;;14.97;;
19521;SDS011;9905;52.126;5.596;2022-12-18T04:25:08;25.33;;;14.33;;
19521;SDS011;9905;52.126;5.596;2022-12-18T04:27:35;18.93;;;12.23;;
19521;SDS011;9905;52.126;5.596;2022-12-18T04:30:02;14.90;;;13.40;;
19521;SDS011;9905;52.126;5.596;2022-12-18T04:32:31;15.93;;;11.90;;
19521;SDS011;9905;52.126;5.596;2022-12-18T04:34:59;15.33;;;13.97;;
19521;SDS011;9905;52.126;5.596;2022-12-18T04:37:26;20.90;;;14.63;;
19521;SDS011;9905;52.126;5.596;2022-12-18T04:39:52;15.63;;;13.03;;
19521;SDS011;9905;52.126;5.596;2022-12-18T04:42:19;12.97;;;11.43;;
19521;SDS011;9905;52.126;5.596;2022-12-18T04:44:46;17.23;;;12.23;;
19521;SDS011;9905;52.126;5.596;2022-12-18T04:47:13;15.57;;;14.10;;
19521;SDS011;9905;52.126;5.596;2022-12-18T04:49:41;16.13;;;14.50;;
19521;SDS011;9905;52.126;5.596;2022-12-18T04:52:07;13.17;;;12.00;;
19521;SDS011;9905;52.126;5.596;2022-12-18T04:54:34;16.20;;;12.50;;
19521;SDS011;9905;52.126;5.596;2022-12-18T04:57:01;14.30;;;12.57;;
19521;SDS011;9905;52.126;5.596;2022-12-18T04:59:28;14.20;;;12.90;;
19521;SDS011;9905;52.126;5.596;2022-12-18T05:01:54;14.37;;;13.03;;
19521;SDS011;9905;52.126;5.596;2022-12-18T05:04:21;13.03;;;12.07;;
19521;SDS011;9905;52.126;5.596;2022-12-18T05:06:49;12.17;;;11.10;;
19521;SDS011;9905;52.126;5.596;2022-12-18T05:09:16;13.67;;;12.23;;
19521;SDS011;9905;52.126;5.596;2022-12-18T05:11:43;14.30;;;12.70;;
19521;SDS011;9905;52.126;5.596;2022-12-18T05:14:09;12.83;;;11.67;;
19521;SDS011;9905;52.126;5.596;2022-12-18T05:16:36;14.97;;;13.37;;
19521;SDS011;9905;52.126;5.596;2022-12-18T05:19:03;16.97;;;12.93;;
19521;SDS011;9905;52.126;5.596;2022-12-18T05:21:30;13.77;;;12.63;;
19521;SDS011;9905;52.126;5.596;2022-12-18T05:23:58;13.47;;;12.23;;
19521;SDS011;9905;52.126;5.596;2022-12-18T05:26:24;11.57;;;10.50;;
19521;SDS011;9905;52.126;5.596;2022-12-18T05:28:51;13.37;;;10.43;;
19521;SDS011;9905;52.126;5.596;2022-12-18T05:31:18;13.83;;;11.00;;
19521;SDS011;9905;52.126;5.596;2022-12-18T05:33:45;12.43;;;11.17;;
19521;SDS011;9905;52.126;5.596;2022-12-18T05:36:11;19.03;;;11.13;;
19521;SDS011;9905;52.126;5.596;2022-12-18T05:38:38;12.80;;;11.60;;
19521;SDS011;9905;52.126;5.596;2022-12-18T05:41:07;13.27;;;11.87;;
19521;SDS011;9905;52.126;5.596;2022-12-18T05:43:35;12.10;;;10.53;;
19521;SDS011;9905;52.126;5.596;2022-12-18T05:46:03;12.77;;;11.47;;
19521;SDS011;9905;52.126;5.596;2022-12-18T05:48:30;11.77;;;10.77;;
19521;SDS011;9905;52.126;5.596;2022-12-18T05:51:02;14.57;;;12.23;;
19521;SDS011;9905;52.126;5.596;2022-12-18T05:53:30;13.27;;;12.07;;
19521;SDS011;9905;52.126;5.596;2022-12-18T05:55:59;14.47;;;13.17;;
19521;SDS011;9905;52.126;5.596;2022-12-18T05:58:28;10.97;;;10.10;;
19521;SDS011;9905;52.126;5.596;2022-12-18T06:00:55;12.13;;;11.00;;
19521;SDS011;9905;52.126;5.596;2022-12-18T06:03:22;10.93;;;9.80;;
19521;SDS011;9905;52.126;5.596;2022-12-18T06:05:49;11.90;;;10.97;;
19521;SDS011;9905;52.126;5.596;2022-12-18T06:08:16;14.53;;;10.77;;
19521;SDS011;9905;52.126;5.596;2022-12-18T06:10:49;10.23;;;9.40;;
19521;SDS011;9905;52.126;5.596;2022-12-18T06:13:17;10.60;;;9.80;;
19521;SDS011;9905;52.126;5.596;2022-12-18T06:15:46;10.40;;;9.70;;
19521;SDS011;9905;52.126;5.596;2022-12-18T06:18:13;12.10;;;10.80;;
19521;SDS011;9905;52.126;5.596;2022-12-18T06:20:40;12.73;;;10.80;;
19521;SDS011;9905;52.126;5.596;2022-12-18T06:23:07;16.00;;;10.30;;
19521;SDS011;9905;52.126;5.596;2022-12-18T06:25:36;11.90;;;11.10;;
19521;SDS011;9905;52.126;5.596;2022-12-18T06:28:04;12.47;;;11.10;;
19521;SDS011;9905;52.126;5.596;2022-12-18T06:30:31;11.90;;;10.40;;
19521;SDS011;9905;52.126;5.596;2022-12-18T06:32:59;11.30;;;10.50;;
19521;SDS011;9905;52.126;5.596;2022-12-18T06:35:26;10.57;;;9.47;;
19521;SDS011;9905;52.126;5.596;2022-12-18T06:37:53;12.43;;;11.20;;
19521;SDS011;9905;52.126;5.596;2022-12-18T06:40:19;17.87;;;10.07;;
19521;SDS011;9905;52.126;5.596;2022-12-18T06:42:46;12.37;;;11.37;;
19521;SDS011;9905;52.126;5.596;2022-12-18T06:45:13;11.67;;;10.30;;
19521;SDS011;9905;52.126;5.596;2022-12-18T06:47:41;10.93;;;9.80;;
19521;SDS011;9905;52.126;5.596;2022-12-18T06:50:10;12.20;;;11.00;;
19521;SDS011;9905;52.126;5.596;2022-12-18T06:52:37;11.30;;;10.30;;
19521;SDS011;9905;52.126;5.596;2022-12-18T06:55:05;12.47;;;11.43;;
19521;SDS011;9905;52.126;5.596;2022-12-18T06:57:32;11.70;;;10.30;;
19521;SDS011;9905;52.126;5.596;2022-12-18T06:59:59;11.87;;;10.83;;
19521;SDS011;9905;52.126;5.596;2022-12-18T07:02:26;11.10;;;10.17;;
19521;SDS011;9905;52.126;5.596;2022-12-18T07:04:52;12.50;;;10.53;;
19521;SDS011;9905;52.126;5.596;2022-12-18T07:07:20;16.70;;;10.47;;
19521;SDS011;9905;52.126;5.596;2022-12-18T07:09:48;10.63;;;9.73;;
19521;SDS011;9905;52.126;5.596;2022-12-18T07:12:15;13.67;;;9.60;;
19521;SDS011;9905;52.126;5.596;2022-12-18T07:14:42;12.40;;;11.17;;
19521;SDS011;9905;52.126;5.596;2022-12-18T07:17:09;10.77;;;10.07;;
19521;SDS011;9905;52.126;5.596;2022-12-18T07:19:36;12.07;;;11.20;;
19521;SDS011;9905;52.126;5.596;2022-12-18T07:22:02;12.57;;;11.70;;
19521;SDS011;9905;52.126;5.596;2022-12-18T07:24:30;10.67;;;9.77;;
19521;SDS011;9905;52.126;5.596;2022-12-18T07:26:58;11.37;;;10.43;;
19521;SDS011;9905;52.126;5.596;2022-12-18T07:29:25;11.37;;;10.37;;
19521;SDS011;9905;52.126;5.596;2022-12-18T07:31:52;11.90;;;10.67;;
19521;SDS011;9905;52.126;5.596;2022-12-18T07:34:18;12.87;;;11.77;;
19521;SDS011;9905;52.126;5.596;2022-12-18T07:36:45;12.93;;;11.93;;
19521;SDS011;9905;52.126;5.596;2022-12-18T07:39:12;13.87;;;12.40;;
19521;SDS011;9905;52.126;5.596;2022-12-18T07:41:40;12.83;;;11.20;;
19521;SDS011;9905;52.126;5.596;2022-12-18T07:44:10;13.17;;;11.77;;
19521;SDS011;9905;52.126;5.596;2022-12-18T07:46:37;12.87;;;11.93;;
19521;SDS011;9905;52.126;5.596;2022-12-18T07:49:04;13.30;;;12.17;;
19521;SDS011;9905;52.126;5.596;2022-12-18T07:51:31;12.27;;;11.30;;
19521;SDS011;9905;52.126;5.596;2022-12-18T07:53:58;11.43;;;10.47;;
19521;SDS011;9905;52.126;5.596;2022-12-18T07:56:25;13.37;;;12.17;;
19521;SDS011;9905;52.126;5.596;2022-12-18T07:58:53;12.13;;;10.83;;
19521;SDS011;9905;52.126;5.596;2022-12-18T08:01:20;11.93;;;10.93;;
19521;SDS011;9905;52.126;5.596;2022-12-18T08:03:46;12.97;;;11.87;;
19521;SDS011;9905;52.126;5.596;2022-12-18T08:06:13;12.50;;;11.17;;
19521;SDS011;9905;52.126;5.596;2022-12-18T08:08:40;14.50;;;12.03;;
19521;SDS011;9905;52.126;5.596;2022-12-18T08:11:07;12.23;;;11.23;;
19521;SDS011;9905;52.126;5.596;2022-12-18T08:13:34;13.97;;;12.57;;
19521;SDS011;9905;52.126;5.596;2022-12-18T08:16:02;11.07;;;10.27;;
19521;SDS011;9905;52.126;5.596;2022-12-18T08:18:31;11.57;;;10.53;;
19521;SDS011;9905;52.126;5.596;2022-12-18T08:21:06;13.00;;;11.73;;
19521;SDS011;9905;52.126;5.596;2022-12-18T08:23:34;12.73;;;11.50;;
19521;SDS011;9905;52.126;5.596;2022-12-18T08:26:00;13.10;;;11.87;;
19521;SDS011;9905;52.126;5.596;2022-12-18T08:28:27;13.27;;;12.30;;
19521;SDS011;9905;52.126;5.596;2022-12-18T08:30:54;11.47;;;10.57;;
19521;SDS011;9905;52.126;5.596;2022-12-18T08:33:22;11.67;;;10.70;;
19521;SDS011;9905;52.126;5.596;2022-12-18T08:35:49;9.67;;;9.03;;
19521;SDS011;9905;52.126;5.596;2022-12-18T08:38:15;12.23;;;11.03;;
19521;SDS011;9905;52.126;5.596;2022-12-18T08:40:42;10.80;;;9.93;;
19521;SDS011;9905;52.126;5.596;2022-12-18T08:43:09;11.07;;;10.07;;
19521;SDS011;9905;52.126;5.596;2022-12-18T08:45:54;12.27;;;11.03;;
19521;SDS011;9905;52.126;5.596;2022-12-18T08:48:23;11.77;;;10.93;;
19521;SDS011;9905;52.126;5.596;2022-12-18T08:50:55;11.57;;;10.50;;
19521;SDS011;9905;52.126;5.596;2022-12-18T08:53:23;12.80;;;11.37;;
19521;SDS011;9905;52.126;5.596;2022-12-18T08:55:50;11.40;;;10.27;;
19521;SDS011;9905;52.126;5.596;2022-12-18T08:58:17;11.40;;;10.50;;
19521;SDS011;9905;52.126;5.596;2022-12-18T09:00:44;13.60;;;10.70;;
19521;SDS011;9905;52.126;5.596;2022-12-18T09:03:12;12.63;;;11.37;;
19521;SDS011;9905;52.126;5.596;2022-12-18T09:05:40;14.77;;;10.20;;
19521;SDS011;9905;52.126;5.596;2022-12-18T09:08:07;9.37;;;8.63;;
19521;SDS011;9905;52.126;5.596;2022-12-18T09:10:40;10.77;;;10.07;;
19521;SDS011;9905;52.126;5.596;2022-12-18T09:13:07;11.20;;;10.30;;
19521;SDS011;9905;52.126;5.596;2022-12-18T09:15:39;9.23;;;8.47;;
19521;SDS011;9905;52.126;5.596;2022-12-18T09:18:06;9.57;;;8.80;;
19521;SDS011;9905;52.126;5.596;2022-12-18T09:20:33;10.67;;;10.00;;
19521;SDS011;9905;52.126;5.596;2022-12-18T09:23:02;9.53;;;8.53;;
19521;SDS011;9905;52.126;5.596;2022-12-18T09:25:29;10.03;;;9.23;;
19521;SDS011;9905;52.126;5.596;2022-12-18T09:27:57;10.57;;;9.70;;
19521;SDS011;9905;52.126;5.596;2022-12-18T09:30:24;10.87;;;9.97;;
19521;SDS011;9905;52.126;5.596;2022-12-18T09:32:51;9.50;;;8.80;;
19521;SDS011;9905;52.126;5.596;2022-12-18T09:35:18;10.97;;;9.87;;
19521;SDS011;9905;52.126;5.596;2022-12-18T09:37:45;10.63;;;9.50;;
19521;SDS011;9905;52.126;5.596;2022-12-18T09:40:14;10.57;;;9.50;;
19521;SDS011;9905;52.126;5.596;2022-12-18T09:42:43;9.77;;;9.07;;
19521;SDS011;9905;52.126;5.596;2022-12-18T09:45:14;9.57;;;8.90;;
19521;SDS011;9905;52.126;5.596;2022-12-18T09:47:42;10.70;;;9.63;;
19521;SDS011;9905;52.126;5.596;2022-12-18T09:50:16;8.73;;;8.20;;
19521;SDS011;9905;52.126;5.596;2022-12-18T09:52:49;10.43;;;9.37;;
19521;SDS011;9905;52.126;5.596;2022-12-18T09:55:21;8.50;;;7.80;;
19521;SDS011;9905;52.126;5.596;2022-12-18T09:57:55;9.23;;;8.17;;
19521;SDS011;9905;52.126;5.596;2022-12-18T10:00:26;8.67;;;8.07;;
19521;SDS011;9905;52.126;5.596;2022-12-18T10:02:59;9.23;;;8.40;;
19521;SDS011;9905;52.126;5.596;2022-12-18T10:05:33;10.30;;;9.27;;
19521;SDS011;9905;52.126;5.596;2022-12-18T10:08:05;9.07;;;8.47;;
19521;SDS011;9905;52.126;5.596;2022-12-18T10:10:39;9.50;;;8.67;;
19521;SDS011;9905;52.126;5.596;2022-12-18T10:13:15;9.97;;;9.07;;
19521;SDS011;9905;52.126;5.596;2022-12-18T10:15:54;8.70;;;7.70;;
19521;SDS011;9905;52.126;5.596;2022-12-18T10:18:32;8.57;;;7.87;;
19521;SDS011;9905;52.126;5.596;2022-12-18T10:21:15;8.60;;;7.87;;
19521;SDS011;9905;52.126;5.596;2022-12-18T10:23:47;9.90;;;8.80;;
19521;SDS011;9905;52.126;5.596;2022-12-18T10:26:22;9.77;;;8.87;;
19521;SDS011;9905;52.126;5.596;2022-12-18T10:28:50;8.03;;;7.33;;
19521;SDS011;9905;52.126;5.596;2022-12-18T10:31:20;8.83;;;7.00;;
19521;SDS011;9905;52.126;5.596;2022-12-18T10:33:48;11.20;;;8.23;;
19521;SDS011;9905;52.126;5.596;2022-12-18T10:36:15;11.67;;;8.20;;
19521;SDS011;9905;52.126;5.596;2022-12-18T10:38:42;8.97;;;8.03;;
19521;SDS011;9905;52.126;5.596;2022-12-18T10:41:22;7.97;;;7.17;;
19521;SDS011;9905;52.126;5.596;2022-12-18T10:44:09;8.37;;;7.47;;
19521;SDS011;9905;52.126;5.596;2022-12-18T10:46:38;7.70;;;7.20;;
19521;SDS011;9905;52.126;5.596;2022-12-18T10:49:17;8.60;;;7.80;;
19521;SDS011;9905;52.126;5.596;2022-12-18T10:51:45;7.53;;;6.83;;
19521;SDS011;9905;52.126;5.596;2022-12-18T10:54:13;9.57;;;6.90;;
19521;SDS011;9905;52.126;5.596;2022-12-18T10:56:43;7.50;;;6.80;;
19521;SDS011;9905;52.126;5.596;2022-12-18T10:59:10;10.03;;;7.43;;
19521;SDS011;9905;52.126;5.596;2022-12-18T11:01:46;8.23;;;7.43;;
19521;SDS011;9905;52.126;5.596;2022-12-18T11:04:16;10.07;;;7.80;;
19521;SDS011;9905;52.126;5.596;2022-12-18T11:06:52;7.63;;;6.93;;
19521;SDS011;9905;52.126;5.596;2022-12-18T11:09:21;8.33;;;6.93;;
19521;SDS011;9905;52.126;5.596;2022-12-18T11:11:50;7.57;;;6.60;;
19521;SDS011;9905;52.126;5.596;2022-12-18T11:14:20;8.47;;;7.77;;
19521;SDS011;9905;52.126;5.596;2022-12-18T11:16:50;7.93;;;7.33;;
19521;SDS011;9905;52.126;5.596;2022-12-18T11:19:20;8.70;;;7.40;;
19521;SDS011;9905;52.126;5.596;2022-12-18T11:21:55;14.33;;;7.80;;
19521;SDS011;9905;52.126;5.596;2022-12-18T11:24:24;7.57;;;6.87;;
19521;SDS011;9905;52.126;5.596;2022-12-18T11:26:56;7.57;;;6.90;;
19521;SDS011;9905;52.126;5.596;2022-12-18T11:29:33;7.23;;;6.53;;
19521;SDS011;9905;52.126;5.596;2022-12-18T11:35:04;7.80;;;7.20;;
19521;SDS011;9905;52.126;5.596;2022-12-18T11:37:41;7.90;;;7.30;;
19521;SDS011;9905;52.126;5.596;2022-12-18T11:40:14;7.40;;;6.77;;
19521;SDS011;9905;52.126;5.596;2022-12-18T11:42:47;12.23;;;7.13;;
19521;SDS011;9905;52.126;5.596;2022-12-18T11:45:21;9.50;;;8.43;;
19521;SDS011;9905;52.126;5.596;2022-12-18T11:47:54;8.27;;;7.53;;
19521;SDS011;9905;52.126;5.596;2022-12-18T11:50:24;7.57;;;6.97;;
19521;SDS011;9905;52.126;5.596;2022-12-18T11:52:54;7.93;;;7.23;;
19521;SDS011;9905;52.126;5.596;2022-12-18T11:55:23;8.30;;;7.37;;
19521;SDS011;9905;52.126;5.596;2022-12-18T11:57:58;6.77;;;6.33;;
19521;SDS011;9905;52.126;5.596;2022-12-18T12:00:33;8.33;;;6.80;;
19521;SDS011;9905;52.126;5.596;2022-12-18T12:03:27;8.40;;;6.67;;
19521;SDS011;9905;52.126;5.596;2022-12-18T12:06:08;7.93;;;7.23;;
19521;SDS011;9905;52.126;5.596;2022-12-18T12:08:45;9.93;;;7.10;;
19521;SDS011;9905;52.126;5.596;2022-12-18T12:11:23;8.50;;;7.63;;
19521;SDS011;9905;52.126;5.596;2022-12-18T12:14:07;8.33;;;7.53;;
19521;SDS011;9905;52.126;5.596;2022-12-18T12:16:43;9.37;;;7.40;;
19521;SDS011;9905;52.126;5.596;2022-12-18T12:19:20;7.23;;;6.63;;
19521;SDS011;9905;52.126;5.596;2022-12-18T12:22:00;9.33;;;7.27;;
19521;SDS011;9905;52.126;5.596;2022-12-18T12:24:37;8.53;;;7.73;;
19521;SDS011;9905;52.126;5.596;2022-12-18T12:27:14;7.97;;;7.17;;
19521;SDS011;9905;52.126;5.596;2022-12-18T12:29:53;7.37;;;6.77;;
19521;SDS011;9905;52.126;5.596;2022-12-18T12:32:30;10.47;;;8.37;;
19521;SDS011;9905;52.126;5.596;2022-12-18T12:35:19;8.73;;;7.80;;
19521;SDS011;9905;52.126;5.596;2022-12-18T12:37:55;7.97;;;7.27;;
19521;SDS011;9905;52.126;5.596;2022-12-18T12:40:31;7.70;;;7.00;;
19521;SDS011;9905;52.126;5.596;2022-12-18T12:43:01;7.33;;;6.60;;
19521;SDS011;9905;52.126;5.596;2022-12-18T12:45:40;10.77;;;7.90;;
19521;SDS011;9905;52.126;5.596;2022-12-18T12:48:15;12.73;;;7.67;;
19521;SDS011;9905;52.126;5.596;2022-12-18T12:50:44;9.17;;;7.33;;
19521;SDS011;9905;52.126;5.596;2022-12-18T12:53:14;9.37;;;7.00;;
19521;SDS011;9905;52.126;5.596;2022-12-18T12:55:49;9.17;;;8.30;;
19521;SDS011;9905;52.126;5.596;2022-12-18T12:58:18;7.47;;;6.83;;
19521;SDS011;9905;52.126;5.596;2022-12-18T13:00:55;7.60;;;6.83;;
19521;SDS011;9905;52.126;5.596;2022-12-18T13:03:32;8.63;;;6.90;;
19521;SDS011;9905;52.126;5.596;2022-12-18T13:06:09;9.90;;;8.40;;
19521;SDS011;9905;52.126;5.596;2022-12-18T13:08:52;10.13;;;7.17;;
19521;SDS011;9905;52.126;5.596;2022-12-18T13:11:30;7.70;;;7.00;;
19521;SDS011;9905;52.126;5.596;2022-12-18T13:14:24;8.10;;;6.80;;
19521;SDS011;9905;52.126;5.596;2022-12-18T13:19:42;8.90;;;7.87;;
19521;SDS011;9905;52.126;5.596;2022-12-18T13:22:20;9.13;;;8.10;;
19521;SDS011;9905;52.126;5.596;2022-12-18T13:24:48;9.83;;;7.87;;
19521;SDS011;9905;52.126;5.596;2022-12-18T13:30:41;10.33;;;7.50;;
19521;SDS011;9905;52.126;5.596;2022-12-18T13:48:18;7.57;;;6.63;;
19521;SDS011;9905;52.126;5.596;2022-12-18T13:50:49;10.03;;;7.60;;
19521;SDS011;9905;52.126;5.596;2022-12-18T13:53:23;8.97;;;8.03;;
19521;SDS011;9905;52.126;5.596;2022-12-18T13:55:52;10.80;;;8.10;;
19521;SDS011;9905;52.126;5.596;2022-12-18T13:58:19;8.83;;;7.63;;
19521;SDS011;9905;52.126;5.596;2022-12-18T14:00:46;9.63;;;8.70;;
19521;SDS011;9905;52.126;5.596;2022-12-18T14:03:20;9.10;;;8.33;;
19521;SDS011;9905;52.126;5.596;2022-12-18T14:05:52;8.57;;;7.73;;
19521;SDS011;9905;52.126;5.596;2022-12-18T14:08:22;8.80;;;7.90;;
19521;SDS011;9905;52.126;5.596;2022-12-18T14:10:53;8.27;;;7.50;;
19521;SDS011;9905;52.126;5.596;2022-12-18T14:13:22;10.90;;;8.07;;
19521;SDS011;9905;52.126;5.596;2022-12-18T14:15:53;8.17;;;7.50;;
19521;SDS011;9905;52.126;5.596;2022-12-18T14:18:20;10.23;;;8.13;;
19521;SDS011;9905;52.126;5.596;2022-12-18T14:20:50;8.50;;;7.77;;
19521;SDS011;9905;52.126;5.596;2022-12-18T14:23:27;9.37;;;8.00;;
19521;SDS011;9905;52.126;5.596;2022-12-18T14:25:59;11.53;;;7.77;;
19521;SDS011;9905;52.126;5.596;2022-12-18T14:28:26;10.73;;;8.40;;
19521;SDS011;9905;52.126;5.596;2022-12-18T14:30:53;9.40;;;8.43;;
19521;SDS011;9905;52.126;5.596;2022-12-18T14:33:22;8.97;;;7.53;;
19521;SDS011;9905;52.126;5.596;2022-12-18T14:35:55;8.10;;;7.30;;
19521;SDS011;9905;52.126;5.596;2022-12-18T14:38:24;8.23;;;7.37;;
19521;SDS011;9905;52.126;5.596;2022-12-18T14:40:56;11.10;;;8.37;;
19521;SDS011;9905;52.126;5.596;2022-12-18T14:43:25;10.00;;;7.77;;
19521;SDS011;9905;52.126;5.596;2022-12-18T14:45:53;12.07;;;7.63;;
19521;SDS011;9905;52.126;5.596;2022-12-18T14:48:21;9.00;;;7.93;;
19521;SDS011;9905;52.126;5.596;2022-12-18T14:50:59;9.53;;;8.60;;
19521;SDS011;9905;52.126;5.596;2022-12-18T14:53:36;9.87;;;8.37;;
19521;SDS011;9905;52.126;5.596;2022-12-18T14:56:12;9.07;;;8.37;;
19521;SDS011;9905;52.126;5.596;2022-12-18T14:58:44;10.77;;;7.97;;
19521;SDS011;9905;52.126;5.596;2022-12-18T15:01:18;9.33;;;7.37;;
19521;SDS011;9905;52.126;5.596;2022-12-18T15:03:50;8.17;;;7.30;;
19521;SDS011;9905;52.126;5.596;2022-12-18T15:06:18;10.67;;;8.33;;
19521;SDS011;9905;52.126;5.596;2022-12-18T15:08:53;9.03;;;7.30;;
19521;SDS011;9905;52.126;5.596;2022-12-18T15:11:34;10.17;;;8.13;;
19521;SDS011;9905;52.126;5.596;2022-12-18T15:16:57;7.57;;;6.87;;
19521;SDS011;9905;52.126;5.596;2022-12-18T15:19:27;7.73;;;6.93;;
19521;SDS011;9905;52.126;5.596;2022-12-18T15:22:01;14.03;;;7.43;;
19521;SDS011;9905;52.126;5.596;2022-12-18T15:24:31;7.57;;;6.90;;
19521;SDS011;9905;52.126;5.596;2022-12-18T15:26:59;10.33;;;8.23;;
19521;SDS011;9905;52.126;5.596;2022-12-18T15:29:26;11.27;;;8.57;;
19521;SDS011;9905;52.126;5.596;2022-12-18T15:32:00;10.60;;;8.13;;